Time,TemperatureF,DewpointF,PressureIn,WindDirection,WindDirectionDegrees,WindSpeedMPH,WindSpeedGustMPH,Humidity,HourlyPrecipIn,Conditions,Clouds,dailyrainin,SoftwareType,DateUTC
2013-01-04 00:02:00,22.4,19.1,30.37,NW,315,0.0,0.0,87,0.00,,,0.00,LWC V2.00 B2112,2013-01-04 08:02:00,
2013-01-04 00:07:00,22.2,18.9,30.37,NW,315,0.0,0.0,87,0.00,,,0.00,LWC V2.00 B2112,2013-01-04 08:07:00,
2013-01-04 00:12:00,22.2,18.9,30.37,NW,315,0.0,0.0,87,0.00,,,0.00,LWC V2.00 B2112,2013-01-04 08:12:00,
2013-01-04 00:17:00,22.2,18.7,30.37,NW,315,0.0,0.0,86,0.00,,,0.00,LWC V2.00 B2112,2013-01-04 08:17:00,
2013-01-04 00:22:00,22.2,18.9,30.37,NW,315,0.0,0.0,87,0.00,,,0.00,LWC V2.00 B2112,2013-01-04 08:22:00,
2013-01-04 00:27:00,22.2,18.9,30.37,NW,315,0.0,0.0,87,0.00,,,0.00,LWC V2.00 B2112,2013-01-04 08:27:00,
2013-01-04 00:32:00,22.2,18.9,30.37,NW,315,0.0,0.0,87,0.00,,,0.00,LWC V2.00 B2112,2013-01-04 08:32:00,
2013-01-04 00:37:00,22.4,19.1,30.37,NW,315,0.0,0.0,87,0.00,,,0.00,LWC V2.00 B2112,2013-01-04 08:37:00,
2013-01-04 00:42:00,22.5,19.2,30.36,NW,315,0.0,0.0,87,0.00,,,0.00,LWC V2.00 B2112,2013-01-04 08:42:00,
2013-01-04 00:47:00,22.5,19.2,30.36,NW,315,0.0,0.0,87,0.00,,,0.00,LWC V2.00 B2112,2013-01-04 08:47:00,
2013-01-04 00:52:00,22.4,19.1,30.36,NW,315,0.0,0.0,87,0.00,,,0.00,LWC V2.00 B2112,2013-01-04 08:52:00,
2013-01-04 00:57:00,22.4,19.1,30.36,NW,315,0.0,0.0,87,0.00,,,0.00,LWC V2.00 B2112,2013-01-04 08:57:00,
2013-01-04 01:02:00,22.4,19.1,30.36,NW,315,0.0,0.0,87,0.00,,,0.00,LWC V2.00 B2112,2013-01-04 09:02:00,
2013-01-04 01:07:00,22.4,19.1,30.36,NW,315,0.0,0.0,87,0.00,,,0.00,LWC V2.00 B2112,2013-01-04 09:07:00,
2013-01-04 01:12:00,22.2,18.9,30.36,NW,315,0.0,0.0,87,0.00,,,0.00,LWC V2.00 B2112,2013-01-04 09:12:00,
2013-01-04 01:17:00,22.2,18.9,30.36,NW,315,0.0,0.0,87,0.00,,,0.00,LWC V2.00 B2112,2013-01-04 09:17:00,
2013-01-04 01:22:00,22.2,18.9,30.36,NW,315,0.0,0.0,87,0.00,,,0.00,LWC V2.00 B2112,2013-01-04 09:22:00,
2013-01-04 01:27:00,22.2,19.2,30.36,NW,315,0.0,0.0,88,0.00,,,0.00,LWC V2.00 B2112,2013-01-04 09:27:00,
2013-01-04 01:32:00,22.2,19.2,30.36,NW,315,0.0,0.0,88,0.00,,,0.00,LWC V2.00 B2112,2013-01-04 09:32:00,
2013-01-04 01:37:00,22.2,19.2,30.36,NW,315,0.0,0.0,88,0.00,,,0.00,LWC V2.00 B2112,2013-01-04 09:37:00,
2013-01-04 01:42:00,22.2,19.2,30.37,NW,315,0.0,0.0,88,0.00,,,0.00,LWC V2.00 B2112,2013-01-04 09:42:00,
2013-01-04 01:47:00,22.2,19.2,30.37,NW,315,0.0,0.0,88,0.00,,,0.00,LWC V2.00 B2112,2013-01-04 09:47:00,
2013-01-04 01:52:00,22.2,19.5,30.37,NW,315,0.0,0.0,89,0.00,,,0.00,LWC V2.00 B2112,2013-01-04 09:52:00,
2013-01-04 01:57:00,22.2,19.5,30.37,NW,315,0.0,0.0,89,0.00,,,0.00,LWC V2.00 B2112,2013-01-04 09:57:00,
2013-01-04 02:02:00,22.2,19.2,30.37,NW,315,0.0,0.0,88,0.00,,,0.00,LWC V2.00 B2112,2013-01-04 10:02:00,
2013-01-04 02:07:00,22.1,19.1,30.37,NW,315,0.0,0.0,88,0.00,,,0.00,LWC V2.00 B2112,2013-01-04 10:07:00,
2013-01-04 02:12:00,22.1,19.1,30.37,NW,315,0.0,0.0,88,0.00,,,0.00,LWC V2.00 B2112,2013-01-04 10:12:00,
2013-01-04 02:17:00,22.1,19.1,30.37,NW,315,0.0,0.0,88,0.00,,,0.00,LWC V2.00 B2112,2013-01-04 10:17:00,
2013-01-04 02:22:00,22.1,19.4,30.37,NW,315,0.0,0.0,89,0.00,,,0.00,LWC V2.00 B2112,2013-01-04 10:22:00,
2013-01-04 02:27:00,21.9,19.2,30.37,NW,315,0.0,0.0,89,0.00,,,0.00,LWC V2.00 B2112,2013-01-04 10:27:00,
2013-01-04 02:32:00,21.9,19.2,30.37,NW,315,0.0,0.0,89,0.00,,,0.00,LWC V2.00 B2112,2013-01-04 10:32:00,
2013-01-04 02:37:00,21.9,19.2,30.37,NW,315,0.0,0.0,89,0.00,,,0.00,LWC V2.00 B2112,2013-01-04 10:37:00,
2013-01-04 02:42:00,21.8,19.1,30.37,NW,315,0.0,0.0,89,0.00,,,0.00,LWC V2.00 B2112,2013-01-04 10:42:00,
2013-01-04 02:47:00,21.6,18.6,30.37,NW,315,0.0,0.0,88,0.00,,,0.00,LWC V2.00 B2112,2013-01-04 10:47:00,
2013-01-04 02:52:00,21.3,18.3,30.37,NW,315,0.0,0.0,88,0.00,,,0.00,LWC V2.00 B2112,2013-01-04 10:52:00,
2013-01-04 02:57:00,21.1,18.1,30.38,NW,315,0.0,0.0,88,0.00,,,0.00,LWC V2.00 B2112,2013-01-04 10:57:00,
2013-01-04 03:02:00,21.0,18.0,30.38,NW,315,0.0,0.0,88,0.00,,,0.00,LWC V2.00 B2112,2013-01-04 11:02:00,
2013-01-04 03:07:00,20.6,17.4,30.38,NW,315,0.0,0.0,87,0.00,,,0.00,LWC V2.00 B2112,2013-01-04 11:07:00,
2013-01-04 03:12:00,20.5,17.5,30.38,NW,315,0.0,0.0,88,0.00,,,0.00,LWC V2.00 B2112,2013-01-04 11:12:00,
2013-01-04 03:17:00,20.3,17.3,30.38,NW,315,0.0,0.0,88,0.00,,,0.00,LWC V2.00 B2112,2013-01-04 11:17:00,
2013-01-04 03:22:00,20.3,17.1,30.38,NW,315,0.0,0.0,87,0.00,,,0.00,LWC V2.00 B2112,2013-01-04 11:22:00,
2013-01-04 03:27:00,20.0,17.0,30.38,NW,315,0.0,0.0,88,0.00,,,0.00,LWC V2.00 B2112,2013-01-04 11:27:00,
2013-01-04 03:32:00,19.9,16.7,30.38,NW,315,0.0,0.0,87,0.00,,,0.00,LWC V2.00 B2112,2013-01-04 11:32:00,
2013-01-04 03:37:00,19.7,16.7,30.38,NW,315,0.0,0.0,88,0.00,,,0.00,LWC V2.00 B2112,2013-01-04 11:37:00,
2013-01-04 03:42:00,19.5,16.3,30.38,NW,315,0.0,0.0,87,0.00,,,0.00,LWC V2.00 B2112,2013-01-04 11:42:00,
2013-01-04 03:47:00,19.5,16.3,30.38,NW,315,0.0,0.0,87,0.00,,,0.00,LWC V2.00 B2112,2013-01-04 11:47:00,
2013-01-04 03:52:00,19.5,16.8,30.38,NW,315,0.0,0.0,89,0.00,,,0.00,LWC V2.00 B2112,2013-01-04 11:52:00,
2013-01-04 03:57:00,19.5,17.1,30.38,NW,315,0.0,0.0,90,0.00,,,0.00,LWC V2.00 B2112,2013-01-04 11:57:00,
2013-01-04 04:02:00,19.4,16.7,30.38,NW,315,0.0,0.0,89,0.00,,,0.00,LWC V2.00 B2112,2013-01-04 12:02:00,
2013-01-04 04:07:00,19.2,16.5,30.38,NW,315,0.0,0.0,89,0.00,,,0.00,LWC V2.00 B2112,2013-01-04 12:07:00,
2013-01-04 04:12:00,19.1,16.1,30.39,NW,315,0.0,0.0,88,0.00,,,0.00,LWC V2.00 B2112,2013-01-04 12:12:00,
2013-01-04 04:17:00,18.9,16.2,30.39,NW,315,0.0,0.0,89,0.00,,,0.00,LWC V2.00 B2112,2013-01-04 12:17:00,
2013-01-04 04:22:00,18.8,16.1,30.39,NW,315,0.0,0.0,89,0.00,,,0.00,LWC V2.00 B2112,2013-01-04 12:22:00,
2013-01-04 04:27:00,18.6,15.9,30.38,NW,315,0.0,0.0,89,0.00,,,0.00,LWC V2.00 B2112,2013-01-04 12:27:00,
2013-01-04 04:32:00,18.4,15.7,30.38,NW,315,0.0,0.0,89,0.00,,,0.00,LWC V2.00 B2112,2013-01-04 12:32:00,
2013-01-04 04:37:00,18.3,15.6,30.38,NW,315,0.0,0.0,89,0.00,,,0.00,LWC V2.00 B2112,2013-01-04 12:37:00,
2013-01-04 04:42:00,18.0,15.1,30.38,NW,315,0.0,0.0,88,0.00,,,0.00,LWC V2.00 B2112,2013-01-04 12:42:00,
2013-01-04 04:47:00,17.8,14.9,30.38,NW,315,0.0,0.0,88,0.00,,,0.00,LWC V2.00 B2112,2013-01-04 12:47:00,
2013-01-04 04:52:00,17.5,14.6,30.38,NW,315,0.0,0.0,88,0.00,,,0.00,LWC V2.00 B2112,2013-01-04 12:52:00,
2013-01-04 04:57:00,17.3,14.4,30.39,NW,315,0.0,0.0,88,0.00,,,0.00,LWC V2.00 B2112,2013-01-04 12:57:00,
2013-01-04 05:02:00,17.2,14.3,30.39,NW,315,0.0,0.0,88,0.00,,,0.00,LWC V2.00 B2112,2013-01-04 13:02:00,
2013-01-04 05:07:00,16.9,14.0,30.39,NW,315,0.0,0.0,88,0.00,,,0.00,LWC V2.00 B2112,2013-01-04 13:07:00,
2013-01-04 05:12:00,16.7,13.8,30.39,NW,315,0.0,0.0,88,0.00,,,0.00,LWC V2.00 B2112,2013-01-04 13:12:00,
2013-01-04 05:17:00,16.5,13.6,30.39,NW,315,0.0,0.0,88,0.00,,,0.00,LWC V2.00 B2112,2013-01-04 13:17:00,
2013-01-04 05:22:00,16.5,13.6,30.39,NW,315,0.0,0.0,88,0.00,,,0.00,LWC V2.00 B2112,2013-01-04 13:22:00,
2013-01-04 05:27:00,16.5,13.8,30.39,NW,315,0.0,0.0,89,0.00,,,0.00,LWC V2.00 B2112,2013-01-04 13:27:00,
2013-01-04 05:32:00,16.7,14.0,30.39,NW,315,0.0,0.0,89,0.00,,,0.00,LWC V2.00 B2112,2013-01-04 13:32:00,
2013-01-04 05:37:00,16.7,14.0,30.39,NW,315,0.0,0.0,89,0.00,,,0.00,LWC V2.00 B2112,2013-01-04 13:37:00,
2013-01-04 05:42:00,16.5,13.6,30.39,NW,315,0.0,0.0,88,0.00,,,0.00,LWC V2.00 B2112,2013-01-04 13:42:00,
2013-01-04 05:47:00,16.4,13.5,30.39,NW,315,0.0,0.0,88,0.00,,,0.00,LWC V2.00 B2112,2013-01-04 13:47:00,
2013-01-04 05:52:00,16.2,13.3,30.39,NW,315,0.0,0.0,88,0.00,,,0.00,LWC V2.00 B2112,2013-01-04 13:52:00,
2013-01-04 05:57:00,16.2,13.3,30.40,NW,315,0.0,0.0,88,0.00,,,0.00,LWC V2.00 B2112,2013-01-04 13:57:00,
2013-01-04 06:02:00,16.2,13.3,30.40,NW,315,0.0,0.0,88,0.00,,,0.00,LWC V2.00 B2112,2013-01-04 14:02:00,
2013-01-04 06:07:00,16.1,13.2,30.40,NW,315,0.0,0.0,88,0.00,,,0.00,LWC V2.00 B2112,2013-01-04 14:07:00,
2013-01-04 06:12:00,16.1,13.4,30.41,NW,315,0.0,0.0,89,0.00,,,0.00,LWC V2.00 B2112,2013-01-04 14:12:00,
2013-01-04 06:17:00,16.1,13.4,30.41,NW,315,0.0,0.0,89,0.00,,,0.00,LWC V2.00 B2112,2013-01-04 14:17:00,
2013-01-04 06:22:00,16.2,13.5,30.41,NW,315,0.0,0.0,89,0.00,,,0.00,LWC V2.00 B2112,2013-01-04 14:22:00,
2013-01-04 06:27:00,16.2,13.5,30.40,NW,315,0.0,0.0,89,0.00,,,0.00,LWC V2.00 B2112,2013-01-04 14:27:00,
2013-01-04 06:32:00,16.2,13.5,30.40,NW,315,0.0,0.0,89,0.00,,,0.00,LWC V2.00 B2112,2013-01-04 14:32:00,
2013-01-04 06:37:00,16.2,13.5,30.40,NW,315,0.0,0.0,89,0.00,,,0.00,LWC V2.00 B2112,2013-01-04 14:37:00,
2013-01-04 06:42:00,16.4,13.7,30.41,NW,315,0.0,0.0,89,0.00,,,0.00,LWC V2.00 B2112,2013-01-04 14:42:00,
2013-01-04 06:47:00,16.4,13.7,30.41,NW,315,0.0,0.0,89,0.00,,,0.00,LWC V2.00 B2112,2013-01-04 14:47:00,
2013-01-04 06:52:00,16.5,13.8,30.41,NW,315,0.0,0.0,89,0.00,,,0.00,LWC V2.00 B2112,2013-01-04 14:52:00,
2013-01-04 06:57:00,16.5,13.8,30.41,NW,315,0.0,0.0,89,0.00,,,0.00,LWC V2.00 B2112,2013-01-04 14:57:00,
2013-01-04 07:02:00,16.7,14.0,30.41,NW,315,0.0,0.0,89,0.00,,,0.00,LWC V2.00 B2112,2013-01-04 15:02:00,
2013-01-04 07:07:00,16.9,14.2,30.41,NW,315,0.0,0.0,89,0.00,,,0.00,LWC V2.00 B2112,2013-01-04 15:07:00,
2013-01-04 07:12:00,16.9,14.2,30.41,NW,315,0.0,0.0,89,0.00,,,0.00,LWC V2.00 B2112,2013-01-04 15:12:00,
2013-01-04 07:17:00,16.9,14.2,30.41,NW,315,0.0,0.0,89,0.00,,,0.00,LWC V2.00 B2112,2013-01-04 15:17:00,
2013-01-04 07:22:00,16.9,14.2,30.41,NW,315,0.0,0.0,89,0.00,,,0.00,LWC V2.00 B2112,2013-01-04 15:22:00,
2013-01-04 07:27:00,17.3,14.6,30.41,NW,315,0.0,0.0,89,0.00,,,0.00,LWC V2.00 B2112,2013-01-04 15:27:00,
2013-01-04 07:32:00,17.7,15.0,30.41,NW,315,0.0,1.0,89,0.00,,,0.00,LWC V2.00 B2112,2013-01-04 15:32:00,
2013-01-04 07:37:00,17.7,15.0,30.41,NW,315,0.0,0.0,89,0.00,,,0.00,LWC V2.00 B2112,2013-01-04 15:37:00,
2013-01-04 07:42:00,17.7,14.8,30.41,NW,315,0.0,0.0,88,0.00,,,0.00,LWC V2.00 B2112,2013-01-04 15:42:00,
2013-01-04 07:47:00,17.8,14.9,30.41,NW,315,0.0,0.0,88,0.00,,,0.00,LWC V2.00 B2112,2013-01-04 15:47:00,
2013-01-04 07:52:00,18.0,15.1,30.41,NW,315,0.0,0.0,88,0.00,,,0.00,LWC V2.00 B2112,2013-01-04 15:52:00,
2013-01-04 07:57:00,18.0,15.1,30.42,NW,315,0.0,0.0,88,0.00,,,0.00,LWC V2.00 B2112,2013-01-04 15:57:00,
2013-01-04 08:02:00,18.1,15.2,30.42,NW,315,0.0,0.0,88,0.00,,,0.00,LWC V2.00 B2112,2013-01-04 16:02:00,
2013-01-04 08:07:00,18.3,15.4,30.42,NW,315,1.0,2.0,88,0.00,,,0.00,LWC V2.00 B2112,2013-01-04 16:07:00,
2013-01-04 08:12:00,18.6,15.4,30.42,NNW,336,2.0,8.0,87,0.00,,,0.00,LWC V2.00 B2112,2013-01-04 16:12:00,
2013-01-04 08:17:00,18.9,15.2,30.42,NNW,329,7.0,7.0,85,0.00,,,0.00,LWC V2.00 B2112,2013-01-04 16:17:00,
2013-01-04 08:22:00,19.1,15.3,30.42,North,359,6.0,6.0,85,0.00,,,0.00,LWC V2.00 B2112,2013-01-04 16:22:00,
2013-01-04 08:27:00,19.2,14.9,30.42,NW,304,4.0,6.0,83,0.00,,,0.00,LWC V2.00 B2112,2013-01-04 16:27:00,
2013-01-04 08:32:00,19.1,15.1,30.42,NW,309,4.0,7.0,84,0.00,,,0.00,LWC V2.00 B2112,2013-01-04 16:32:00,
2013-01-04 08:37:00,19.2,14.9,30.42,NW,315,1.0,4.0,83,0.00,,,0.00,LWC V2.00 B2112,2013-01-04 16:37:00,
2013-01-04 08:42:00,19.2,14.9,30.42,WNW,294,2.0,6.0,83,0.00,,,0.00,LWC V2.00 B2112,2013-01-04 16:42:00,
2013-01-04 08:47:00,19.4,15.1,30.42,NW,309,2.0,6.0,83,0.00,,,0.00,LWC V2.00 B2112,2013-01-04 16:47:00,
2013-01-04 08:52:00,19.5,14.9,30.42,NW,325,4.0,6.0,82,0.00,,,0.00,LWC V2.00 B2112,2013-01-04 16:52:00,
2013-01-04 08:57:00,19.7,14.8,30.43,NNW,333,7.0,8.0,81,0.00,,,0.00,LWC V2.00 B2112,2013-01-04 16:57:00,
2013-01-04 09:02:00,19.7,14.6,30.43,NW,311,6.0,6.0,80,0.00,,,0.00,LWC V2.00 B2112,2013-01-04 17:02:00,
2013-01-04 09:07:00,19.7,15.1,30.43,WNW,299,7.0,7.0,82,0.00,,,0.00,LWC V2.00 B2112,2013-01-04 17:07:00,
2013-01-04 09:12:00,19.9,14.7,30.44,NW,308,6.0,8.0,80,0.00,,,0.00,LWC V2.00 B2112,2013-01-04 17:12:00,
2013-01-04 09:17:00,19.9,15.0,30.44,NW,316,4.0,6.0,81,0.00,,,0.00,LWC V2.00 B2112,2013-01-04 17:17:00,
2013-01-04 09:22:00,20.2,14.5,30.44,NW,316,6.0,7.0,78,0.00,,,0.00,LWC V2.00 B2112,2013-01-04 17:22:00,
2013-01-04 09:27:00,20.2,15.0,30.44,NW,313,4.0,6.0,80,0.00,,,0.00,LWC V2.00 B2112,2013-01-04 17:27:00,
2013-01-04 09:32:00,20.3,14.8,30.44,NW,312,4.0,7.0,79,0.00,,,0.00,LWC V2.00 B2112,2013-01-04 17:32:00,
2013-01-04 09:37:00,20.3,14.8,30.44,NW,312,6.0,6.0,79,0.00,,,0.00,LWC V2.00 B2112,2013-01-04 17:37:00,
2013-01-04 09:42:00,20.5,15.3,30.44,NW,313,8.0,8.0,80,0.00,,,0.00,LWC V2.00 B2112,2013-01-04 17:42:00,
2013-01-04 09:47:00,20.6,14.8,30.44,NNW,340,4.0,8.0,78,0.00,,,0.00,LWC V2.00 B2112,2013-01-04 17:47:00,
2013-01-04 09:52:00,20.8,14.7,30.44,NW,313,4.0,6.0,77,0.00,,,0.00,LWC V2.00 B2112,2013-01-04 17:52:00,
2013-01-04 09:57:00,21.0,14.6,30.44,NW,308,4.0,6.0,76,0.00,,,0.00,LWC V2.00 B2112,2013-01-04 17:57:00,
2013-01-04 10:02:00,21.0,15.2,30.44,NNW,329,6.0,6.0,78,0.00,,,0.00,LWC V2.00 B2112,2013-01-04 18:02:00,
2013-01-04 10:07:00,21.1,15.3,30.44,NNW,337,4.0,7.0,78,0.00,,,0.00,LWC V2.00 B2112,2013-01-04 18:07:00,
2013-01-04 10:12:00,21.4,14.7,30.44,NW,322,6.0,6.0,75,0.00,,,0.00,LWC V2.00 B2112,2013-01-04 18:12:00,
2013-01-04 10:17:00,21.6,15.2,30.44,NW,322,2.0,4.0,76,0.00,,,0.00,LWC V2.00 B2112,2013-01-04 18:17:00,
2013-01-04 10:22:00,21.8,15.4,30.44,NW,320,4.0,6.0,76,0.00,,,0.00,LWC V2.00 B2112,2013-01-04 18:22:00,
2013-01-04 10:27:00,22.1,15.7,30.44,NW,320,1.0,2.0,76,0.00,,,0.00,LWC V2.00 B2112,2013-01-04 18:27:00,
2013-01-04 10:32:00,22.2,15.5,30.44,WNW,301,2.0,6.0,75,0.00,,,0.00,LWC V2.00 B2112,2013-01-04 18:32:00,
2013-01-04 10:37:00,22.4,15.7,30.44,NW,313,4.0,7.0,75,0.00,,,0.00,LWC V2.00 B2112,2013-01-04 18:37:00,
2013-01-04 10:42:00,22.7,16.0,30.44,NW,313,2.0,6.0,75,0.00,,,0.00,LWC V2.00 B2112,2013-01-04 18:42:00,
2013-01-04 10:47:00,22.9,16.2,30.44,WNW,296,4.0,4.0,75,0.00,,,0.00,LWC V2.00 B2112,2013-01-04 18:47:00,
2013-01-04 10:52:00,23.2,16.5,30.44,WNW,298,4.0,4.0,75,0.00,,,0.00,LWC V2.00 B2112,2013-01-04 18:52:00,
2013-01-04 10:57:00,23.5,16.5,30.43,West,281,4.0,4.0,74,0.00,,,0.00,LWC V2.00 B2112,2013-01-04 18:57:00,
2013-01-04 11:02:00,23.8,16.4,30.43,WNW,285,1.0,6.0,73,0.00,,,0.00,LWC V2.00 B2112,2013-01-04 19:02:00,
2013-01-04 11:07:00,24.2,16.5,30.43,WNW,285,0.0,0.0,72,0.00,,,0.00,LWC V2.00 B2112,2013-01-04 19:07:00,
2013-01-04 11:12:00,24.7,17.3,30.43,WNW,285,0.0,0.0,73,0.00,,,0.00,LWC V2.00 B2112,2013-01-04 19:12:00,
2013-01-04 11:17:00,25.0,16.6,30.43,WNW,285,2.0,2.0,70,0.00,,,0.00,LWC V2.00 B2112,2013-01-04 19:17:00,
2013-01-04 11:22:00,25.1,17.0,30.43,WNW,285,0.0,0.0,71,0.00,,,0.00,LWC V2.00 B2112,2013-01-04 19:22:00,
2013-01-04 11:27:00,25.7,17.0,30.42,WNW,285,0.0,0.0,69,0.00,,,0.00,LWC V2.00 B2112,2013-01-04 19:27:00,
2013-01-04 11:32:00,26.3,18.2,30.42,WNW,285,0.0,0.0,71,0.00,,,0.00,LWC V2.00 B2112,2013-01-04 19:32:00,
2013-01-04 11:37:00,27.3,18.2,30.42,WNW,285,0.0,0.0,68,0.00,,,0.00,LWC V2.00 B2112,2013-01-04 19:37:00,
2013-01-04 11:42:00,27.6,18.4,30.42,WNW,285,2.0,2.0,68,0.00,,,0.00,LWC V2.00 B2112,2013-01-04 19:42:00,
2013-01-04 11:47:00,28.1,18.9,30.42,WNW,285,0.0,0.0,68,0.00,,,0.00,LWC V2.00 B2112,2013-01-04 19:47:00,
2013-01-04 11:52:00,28.5,19.3,30.42,WNW,285,0.0,0.0,68,0.00,,,0.00,LWC V2.00 B2112,2013-01-04 19:52:00,
2013-01-04 11:57:00,28.1,18.6,30.42,WNW,285,0.0,0.0,67,0.00,,,0.00,LWC V2.00 B2112,2013-01-04 19:57:00,
2013-01-04 12:02:00,27.5,18.0,30.42,WNW,285,0.0,0.0,67,0.00,,,0.00,LWC V2.00 B2112,2013-01-04 20:02:00,
2013-01-04 12:07:00,27.0,17.5,30.42,WNW,285,0.0,0.0,67,0.00,,,0.00,LWC V2.00 B2112,2013-01-04 20:07:00,
2013-01-04 12:12:00,27.0,17.5,30.41,WNW,285,0.0,0.0,67,0.00,,,0.00,LWC V2.00 B2112,2013-01-04 20:12:00,
2013-01-04 12:17:00,27.2,17.7,30.41,WNW,285,0.0,0.0,67,0.00,,,0.00,LWC V2.00 B2112,2013-01-04 20:17:00,
2013-01-04 12:22:00,27.2,17.7,30.41,WNW,285,0.0,0.0,67,0.00,,,0.00,LWC V2.00 B2112,2013-01-04 20:22:00,
2013-01-04 12:27:00,27.2,17.7,30.41,SSW,213,2.0,4.0,67,0.00,,,0.00,LWC V2.00 B2112,2013-01-04 20:27:00,
2013-01-04 12:32:00,28.2,18.3,30.41,SSW,213,0.0,0.0,66,0.00,,,0.00,LWC V2.00 B2112,2013-01-04 20:32:00,
2013-01-04 12:37:00,28.2,18.3,30.41,SSE,147,0.0,1.0,66,0.00,,,0.00,LWC V2.00 B2112,2013-01-04 20:37:00,
2013-01-04 12:42:00,27.9,17.3,30.40,SE,138,1.0,1.0,64,0.00,,,0.00,LWC V2.00 B2112,2013-01-04 20:42:00,
2013-01-04 12:47:00,27.9,17.3,30.40,SE,138,1.0,1.0,64,0.00,,,0.00,LWC V2.00 B2112,2013-01-04 20:47:00,
2013-01-04 12:52:00,-999.0,-99.9,30.40,North,-999,-999.0,1.0,-999,0.00,,,0.00,LWC V2.00 B2112,2013-01-04 20:52:00,
2013-01-04 12:57:00,-999.0,-99.9,30.40,North,-999,-999.0,0.0,-999,0.00,,,0.00,LWC V2.00 B2112,2013-01-04 20:57:00,
2013-01-04 13:02:00,-999.0,-99.9,30.40,North,-999,-999.0,0.0,-999,0.00,,,0.00,LWC V2.00 B2112,2013-01-04 21:02:00,
2013-01-04 13:07:00,-999.0,-99.9,30.40,North,-999,-999.0,0.0,-999,0.00,,,0.00,LWC V2.00 B2112,2013-01-04 21:07:00,
2013-01-04 13:12:00,-999.0,-99.9,30.40,North,-999,-999.0,0.0,-999,0.00,,,0.00,LWC V2.00 B2112,2013-01-04 21:12:00,
2013-01-04 13:17:00,-999.0,-99.9,30.40,North,-999,-999.0,0.0,-999,0.00,,,0.00,LWC V2.00 B2112,2013-01-04 21:17:00,
2013-01-04 13:22:00,-999.0,-99.9,30.40,SSE,148,0.0,0.0,-999,0.00,,,0.00,LWC V2.00 B2112,2013-01-04 21:22:00,
2013-01-04 13:27:00,29.8,-99.9,30.40,SSE,148,0.0,0.0,-999,0.00,,,0.00,LWC V2.00 B2112,2013-01-04 21:27:00,
2013-01-04 13:32:00,29.8,-99.9,30.40,SE,145,0.0,1.0,-999,0.00,,,0.00,LWC V2.00 B2112,2013-01-04 21:32:00,
2013-01-04 13:37:00,29.8,-99.9,30.40,SE,145,0.0,0.0,-999,0.00,,,0.00,LWC V2.00 B2112,2013-01-04 21:37:00,
2013-01-04 13:42:00,-999.0,-99.9,30.39,North,-999,-999.0,0.0,-999,0.00,,,0.00,LWC V2.00 B2112,2013-01-04 21:42:00,
2013-01-04 13:47:00,-999.0,-99.9,30.39,North,-999,-999.0,0.0,-999,0.00,,,0.00,LWC V2.00 B2112,2013-01-04 21:47:00,
2013-01-04 13:52:00,-999.0,-99.9,30.39,North,-999,-999.0,0.0,-999,0.00,,,0.00,LWC V2.00 B2112,2013-01-04 21:52:00,
2013-01-04 13:57:00,-999.0,-99.9,30.40,SSW,198,0.0,1.0,-999,0.00,,,0.00,LWC V2.00 B2112,2013-01-04 21:57:00,
2013-01-04 14:02:00,-999.0,-99.9,30.40,SSW,198,0.0,0.0,-999,0.00,,,0.00,LWC V2.00 B2112,2013-01-04 22:02:00,
2013-01-04 14:07:00,29.3,-99.9,30.40,SE,133,0.0,1.0,-999,0.00,,,0.00,LWC V2.00 B2112,2013-01-04 22:07:00,
2013-01-04 14:12:00,29.0,19.8,30.40,South,178,0.0,2.0,68,0.00,,,0.00,LWC V2.00 B2112,2013-01-04 22:12:00,
2013-01-04 14:17:00,29.0,19.8,30.40,South,178,0.0,0.0,68,0.00,,,0.00,LWC V2.00 B2112,2013-01-04 22:17:00,
2013-01-04 14:22:00,29.0,19.8,30.40,South,178,0.0,0.0,68,0.00,,,0.00,LWC V2.00 B2112,2013-01-04 22:22:00,
2013-01-04 14:27:00,-999.0,-99.9,30.40,North,-999,-999.0,0.0,-999,0.00,,,0.00,LWC V2.00 B2112,2013-01-04 22:27:00,
2013-01-04 14:32:00,27.8,19.0,30.40,South,175,0.0,2.0,69,0.00,,,0.00,LWC V2.00 B2112,2013-01-04 22:32:00,
2013-01-04 14:37:00,27.6,18.8,30.40,SSE,151,0.0,2.0,69,0.00,,,0.00,LWC V2.00 B2112,2013-01-04 22:37:00,
2013-01-04 14:42:00,27.6,18.8,30.40,SE,145,0.0,2.0,69,0.00,,,0.00,LWC V2.00 B2112,2013-01-04 22:42:00,
2013-01-04 14:47:00,27.5,19.4,30.40,SSE,147,0.0,0.0,71,0.00,,,0.00,LWC V2.00 B2112,2013-01-04 22:47:00,
2013-01-04 14:52:00,27.3,19.2,30.40,SSE,147,0.0,1.0,71,0.00,,,0.00,LWC V2.00 B2112,2013-01-04 22:52:00,
2013-01-04 14:57:00,27.0,19.2,30.41,SSE,147,0.0,0.0,72,0.00,,,0.00,LWC V2.00 B2112,2013-01-04 22:57:00,
2013-01-04 15:02:00,26.9,19.1,30.41,SE,145,0.0,2.0,72,0.00,,,0.00,LWC V2.00 B2112,2013-01-04 23:02:00,
2013-01-04 15:07:00,26.7,19.2,30.41,SSE,147,0.0,1.0,73,0.00,,,0.00,LWC V2.00 B2112,2013-01-04 23:07:00,
2013-01-04 15:12:00,26.7,19.2,30.41,SE,145,4.0,4.0,73,0.00,,,0.00,LWC V2.00 B2112,2013-01-04 23:12:00,
2013-01-04 15:17:00,26.6,19.1,30.41,SSE,150,0.0,4.0,73,0.00,,,0.00,LWC V2.00 B2112,2013-01-04 23:17:00,
2013-01-04 15:22:00,26.4,19.3,30.41,SSE,150,0.0,0.0,74,0.00,,,0.00,LWC V2.00 B2112,2013-01-04 23:22:00,
2013-01-04 15:27:00,26.4,19.3,30.41,SSE,150,0.0,0.0,74,0.00,,,0.00,LWC V2.00 B2112,2013-01-04 23:27:00,
2013-01-04 15:32:00,26.1,19.3,30.41,SSE,150,0.0,0.0,75,0.00,,,0.00,LWC V2.00 B2112,2013-01-04 23:32:00,
2013-01-04 15:37:00,26.1,19.0,30.41,SSE,150,0.0,0.0,74,0.00,,,0.00,LWC V2.00 B2112,2013-01-04 23:37:00,
2013-01-04 15:42:00,26.0,19.5,30.41,SSE,150,0.0,0.0,76,0.00,,,0.00,LWC V2.00 B2112,2013-01-04 23:42:00,
2013-01-04 15:47:00,25.7,19.5,30.41,SSE,150,0.0,0.0,77,0.00,,,0.00,LWC V2.00 B2112,2013-01-04 23:47:00,
2013-01-04 15:52:00,25.3,19.4,30.41,SSW,205,0.0,1.0,78,0.00,,,0.00,LWC V2.00 B2112,2013-01-04 23:52:00,
2013-01-04 15:57:00,25.0,19.1,30.42,SSW,205,0.0,1.0,78,0.00,,,0.00,LWC V2.00 B2112,2013-01-04 23:57:00,
2013-01-04 16:02:00,24.8,18.9,30.42,SSW,205,0.0,0.0,78,0.00,,,0.00,LWC V2.00 B2112,2013-01-05 00:02:00,
2013-01-04 16:07:00,24.7,18.8,30.42,SSW,205,0.0,0.0,78,0.00,,,0.00,LWC V2.00 B2112,2013-01-05 00:07:00,
2013-01-04 16:12:00,24.5,18.9,30.42,SSW,205,0.0,0.0,79,0.00,,,0.00,LWC V2.00 B2112,2013-01-05 00:12:00,
2013-01-04 16:17:00,24.4,18.8,30.42,SSW,205,0.0,0.0,79,0.00,,,0.00,LWC V2.00 B2112,2013-01-05 00:17:00,
2013-01-04 16:22:00,24.1,18.8,30.42,SSW,205,0.0,0.0,80,0.00,,,0.00,LWC V2.00 B2112,2013-01-05 00:22:00,
2013-01-04 16:27:00,23.9,18.4,30.42,SSW,205,0.0,0.0,79,0.00,,,0.00,LWC V2.00 B2112,2013-01-05 00:27:00,
2013-01-04 16:32:00,23.8,18.3,30.42,WSW,254,1.0,2.0,79,0.00,,,0.00,LWC V2.00 B2112,2013-01-05 00:32:00,
2013-01-04 16:37:00,23.6,17.8,30.42,WSW,254,0.0,1.0,78,0.00,,,0.00,LWC V2.00 B2112,2013-01-05 00:37:00,
2013-01-04 16:42:00,23.5,18.0,30.42,WSW,254,0.0,0.0,79,0.00,,,0.00,LWC V2.00 B2112,2013-01-05 00:42:00,
2013-01-04 16:47:00,23.3,17.8,30.42,WSW,254,0.0,2.0,79,0.00,,,0.00,LWC V2.00 B2112,2013-01-05 00:47:00,
2013-01-04 16:52:00,23.2,18.0,30.42,WSW,254,0.0,2.0,80,0.00,,,0.00,LWC V2.00 B2112,2013-01-05 00:52:00,
2013-01-04 16:57:00,23.2,17.7,30.42,WSW,254,0.0,0.0,79,0.00,,,0.00,LWC V2.00 B2112,2013-01-05 00:57:00,
2013-01-04 17:02:00,23.2,18.0,30.42,WSW,254,0.0,1.0,80,0.00,,,0.00,LWC V2.00 B2112,2013-01-05 01:02:00,
2013-01-04 17:07:00,23.0,18.1,30.42,WSW,254,0.0,0.0,81,0.00,,,0.00,LWC V2.00 B2112,2013-01-05 01:07:00,
2013-01-04 17:12:00,22.9,17.7,30.42,WSW,254,0.0,0.0,80,0.00,,,0.00,LWC V2.00 B2112,2013-01-05 01:12:00,
2013-01-04 17:17:00,22.9,17.4,30.42,WSW,254,0.0,0.0,79,0.00,,,0.00,LWC V2.00 B2112,2013-01-05 01:17:00,
2013-01-04 17:22:00,22.7,17.5,30.42,WSW,254,1.0,2.0,80,0.00,,,0.00,LWC V2.00 B2112,2013-01-05 01:22:00,
2013-01-04 17:27:00,22.5,17.3,30.43,WSW,254,2.0,4.0,80,0.00,,,0.00,LWC V2.00 B2112,2013-01-05 01:27:00,
2013-01-04 17:32:00,22.7,17.5,30.43,WSW,254,0.0,0.0,80,0.00,,,0.00,LWC V2.00 B2112,2013-01-05 01:32:00,
2013-01-04 17:37:00,22.5,17.6,30.43,WSW,254,0.0,0.0,81,0.00,,,0.00,LWC V2.00 B2112,2013-01-05 01:37:00,
2013-01-04 17:42:00,22.5,17.6,30.43,WSW,254,0.0,0.0,81,0.00,,,0.00,LWC V2.00 B2112,2013-01-05 01:42:00,
2013-01-04 17:47:00,22.5,17.6,30.43,WSW,254,0.0,0.0,81,0.00,,,0.00,LWC V2.00 B2112,2013-01-05 01:47:00,
2013-01-04 17:52:00,22.5,17.6,30.43,WSW,254,0.0,0.0,81,0.00,,,0.00,LWC V2.00 B2112,2013-01-05 01:52:00,
2013-01-04 17:57:00,22.5,17.6,30.42,WSW,254,0.0,0.0,81,0.00,,,0.00,LWC V2.00 B2112,2013-01-05 01:57:00,
2013-01-04 18:02:00,22.5,17.9,30.42,WSW,254,0.0,0.0,82,0.00,,,0.00,LWC V2.00 B2112,2013-01-05 02:02:00,
2013-01-04 18:07:00,22.5,18.1,30.42,WSW,254,0.0,0.0,83,0.00,,,0.00,LWC V2.00 B2112,2013-01-05 02:07:00,
2013-01-04 18:12:00,22.4,17.8,30.42,WSW,254,1.0,4.0,82,0.00,,,0.00,LWC V2.00 B2112,2013-01-05 02:12:00,
2013-01-04 18:17:00,22.5,17.6,30.42,West,260,2.0,4.0,81,0.00,,,0.00,LWC V2.00 B2112,2013-01-05 02:17:00,
2013-01-04 18:22:00,22.7,17.8,30.42,West,264,4.0,4.0,81,0.00,,,0.00,LWC V2.00 B2112,2013-01-05 02:22:00,
2013-01-04 18:27:00,22.7,17.8,30.42,West,264,1.0,2.0,81,0.00,,,0.00,LWC V2.00 B2112,2013-01-05 02:27:00,
2013-01-04 18:32:00,22.7,17.8,30.42,West,264,0.0,2.0,81,0.00,,,0.00,LWC V2.00 B2112,2013-01-05 02:32:00,
2013-01-04 18:37:00,22.7,18.0,30.42,West,264,0.0,0.0,82,0.00,,,0.00,LWC V2.00 B2112,2013-01-05 02:37:00,
2013-01-04 18:42:00,22.5,17.9,30.43,West,264,0.0,0.0,82,0.00,,,0.00,LWC V2.00 B2112,2013-01-05 02:42:00,
2013-01-04 18:47:00,22.5,18.1,30.43,West,264,2.0,2.0,83,0.00,,,0.00,LWC V2.00 B2112,2013-01-05 02:47:00,
2013-01-04 18:52:00,22.5,18.1,30.43,West,264,0.0,2.0,83,0.00,,,0.00,LWC V2.00 B2112,2013-01-05 02:52:00,
2013-01-04 18:57:00,22.5,18.1,30.44,West,264,0.0,0.0,83,0.00,,,0.00,LWC V2.00 B2112,2013-01-05 02:57:00,
2013-01-04 19:02:00,22.7,18.6,30.44,West,264,2.0,4.0,84,0.00,,,0.00,LWC V2.00 B2112,2013-01-05 03:02:00,
2013-01-04 19:07:00,22.9,18.5,30.44,West,264,2.0,2.0,83,0.00,,,0.00,LWC V2.00 B2112,2013-01-05 03:07:00,
2013-01-04 19:12:00,22.9,18.5,30.43,West,264,0.0,1.0,83,0.00,,,0.00,LWC V2.00 B2112,2013-01-05 03:12:00,
2013-01-04 19:17:00,22.9,18.5,30.43,West,264,0.0,0.0,83,0.00,,,0.00,LWC V2.00 B2112,2013-01-05 03:17:00,
2013-01-04 19:22:00,22.7,18.3,30.43,West,264,1.0,1.0,83,0.00,,,0.00,LWC V2.00 B2112,2013-01-05 03:22:00,
2013-01-04 19:27:00,22.9,18.5,30.43,West,264,0.0,0.0,83,0.00,,,0.00,LWC V2.00 B2112,2013-01-05 03:27:00,
2013-01-04 19:32:00,22.9,18.5,30.43,West,264,2.0,2.0,83,0.00,,,0.00,LWC V2.00 B2112,2013-01-05 03:32:00,
2013-01-04 19:37:00,23.0,18.3,30.43,West,264,1.0,2.0,82,0.00,,,0.00,LWC V2.00 B2112,2013-01-05 03:37:00,
2013-01-04 19:42:00,23.0,18.3,30.43,West,264,0.0,2.0,82,0.00,,,0.00,LWC V2.00 B2112,2013-01-05 03:42:00,
2013-01-04 19:47:00,23.0,18.3,30.43,West,264,0.0,0.0,82,0.00,,,0.00,LWC V2.00 B2112,2013-01-05 03:47:00,
2013-01-04 19:52:00,23.0,18.3,30.43,West,264,0.0,0.0,82,0.00,,,0.00,LWC V2.00 B2112,2013-01-05 03:52:00,
2013-01-04 19:57:00,23.0,18.1,30.43,West,264,0.0,0.0,81,0.00,,,0.00,LWC V2.00 B2112,2013-01-05 03:57:00,
2013-01-04 20:02:00,23.2,18.5,30.43,West,264,0.0,0.0,82,0.00,,,0.00,LWC V2.00 B2112,2013-01-05 04:02:00,
2013-01-04 20:07:00,23.2,18.5,30.43,West,264,0.0,2.0,82,0.00,,,0.00,LWC V2.00 B2112,2013-01-05 04:07:00,
2013-01-04 20:12:00,23.2,18.5,30.43,West,264,0.0,0.0,82,0.00,,,0.00,LWC V2.00 B2112,2013-01-05 04:12:00,
2013-01-04 20:17:00,23.2,18.8,30.43,West,264,0.0,0.0,83,0.00,,,0.00,LWC V2.00 B2112,2013-01-05 04:17:00,
2013-01-04 20:22:00,23.2,18.5,30.43,West,264,0.0,0.0,82,0.00,,,0.00,LWC V2.00 B2112,2013-01-05 04:22:00,
2013-01-04 20:27:00,23.2,18.5,30.43,West,264,0.0,0.0,82,0.00,,,0.00,LWC V2.00 B2112,2013-01-05 04:27:00,
2013-01-04 20:32:00,23.2,18.5,30.43,West,264,0.0,0.0,82,0.00,,,0.00,LWC V2.00 B2112,2013-01-05 04:32:00,
2013-01-04 20:37:00,23.2,18.3,30.43,West,264,0.0,0.0,81,0.00,,,0.00,LWC V2.00 B2112,2013-01-05 04:37:00,
2013-01-04 20:42:00,23.3,18.3,30.44,West,264,0.0,2.0,81,0.00,,,0.00,LWC V2.00 B2112,2013-01-05 04:42:00,
2013-01-04 20:47:00,23.3,18.3,30.44,West,264,2.0,4.0,81,0.00,,,0.00,LWC V2.00 B2112,2013-01-05 04:47:00,
2013-01-04 20:52:00,23.3,18.3,30.44,West,264,0.0,0.0,81,0.00,,,0.00,LWC V2.00 B2112,2013-01-05 04:52:00,
2013-01-04 20:57:00,23.3,18.6,30.44,West,264,0.0,2.0,82,0.00,,,0.00,LWC V2.00 B2112,2013-01-05 04:57:00,
2013-01-04 21:00:00,23.3,18.6,30.44,West,264,0.0,2.0,82,0.00,,,0.00,LWC V2.00 B2112,2013-01-05 05:00:00,
2013-01-04 21:05:00,23.3,18.3,30.44,West,264,1.0,4.0,81,0.00,,,0.00,LWC V2.00 B2112,2013-01-05 05:05:00,
2013-01-04 21:10:00,23.5,18.5,30.44,West,264,0.0,0.0,81,0.00,,,0.00,LWC V2.00 B2112,2013-01-05 05:10:00,
2013-01-04 21:15:00,23.5,18.5,30.45,West,265,2.0,4.0,81,0.00,,,0.00,LWC V2.00 B2112,2013-01-05 05:15:00,
2013-01-04 21:20:00,23.6,18.4,30.45,West,265,0.0,2.0,80,0.00,,,0.00,LWC V2.00 B2112,2013-01-05 05:20:00,
2013-01-04 21:25:00,23.6,18.1,30.45,West,265,1.0,4.0,79,0.00,,,0.00,LWC V2.00 B2112,2013-01-05 05:25:00,
2013-01-04 21:30:00,23.6,18.1,30.44,NW,316,1.0,4.0,79,0.00,,,0.00,LWC V2.00 B2112,2013-01-05 05:30:00,
2013-01-04 21:35:00,23.6,18.1,30.44,NW,316,1.0,4.0,79,0.00,,,0.00,LWC V2.00 B2112,2013-01-05 05:35:00,
2013-01-04 21:40:00,23.8,18.3,30.44,NW,316,2.0,4.0,79,0.00,,,0.00,LWC V2.00 B2112,2013-01-05 05:40:00,
2013-01-04 21:45:00,23.8,18.3,30.44,NW,316,0.0,2.0,79,0.00,,,0.00,LWC V2.00 B2112,2013-01-05 05:45:00,
2013-01-04 21:50:00,23.8,18.3,30.44,NW,316,0.0,0.0,79,0.00,,,0.00,LWC V2.00 B2112,2013-01-05 05:50:00,
2013-01-04 21:55:00,23.8,18.3,30.44,NW,316,0.0,4.0,79,0.00,,,0.00,LWC V2.00 B2112,2013-01-05 05:55:00,
2013-01-04 22:00:00,23.8,18.3,30.45,NW,316,1.0,2.0,79,0.00,,,0.00,LWC V2.00 B2112,2013-01-05 06:00:00,
2013-01-04 22:05:00,23.9,18.4,30.45,NNW,337,2.0,4.0,79,0.00,,,0.00,LWC V2.00 B2112,2013-01-05 06:05:00,
2013-01-04 22:10:00,23.9,18.1,30.45,NNE,18,1.0,7.0,78,0.00,,,0.00,LWC V2.00 B2112,2013-01-05 06:10:00,
2013-01-04 22:15:00,24.1,18.5,30.45,NNW,329,0.0,0.0,79,0.00,,,0.00,LWC V2.00 B2112,2013-01-05 06:15:00,
2013-01-04 22:20:00,23.9,18.4,30.45,WNW,301,2.0,2.0,79,0.00,,,0.00,LWC V2.00 B2112,2013-01-05 06:20:00,
2013-01-04 22:25:00,24.1,18.3,30.45,NNW,346,2.0,4.0,78,0.00,,,0.00,LWC V2.00 B2112,2013-01-05 06:25:00,
2013-01-04 22:30:00,24.1,18.3,30.45,West,280,4.0,6.0,78,0.00,,,0.00,LWC V2.00 B2112,2013-01-05 06:30:00,
2013-01-04 22:35:00,24.1,18.5,30.45,WNW,287,1.0,2.0,79,0.00,,,0.00,LWC V2.00 B2112,2013-01-05 06:35:00,
2013-01-04 22:40:00,24.1,18.5,30.45,WNW,298,4.0,6.0,79,0.00,,,0.00,LWC V2.00 B2112,2013-01-05 06:40:00,
2013-01-04 22:45:00,24.1,18.0,30.45,WNW,299,0.0,4.0,77,0.00,,,0.00,LWC V2.00 B2112,2013-01-05 06:45:00,
2013-01-04 22:50:00,24.1,18.8,30.45,NNW,347,4.0,6.0,80,0.00,,,0.00,LWC V2.00 B2112,2013-01-05 06:50:00,
2013-01-04 22:55:00,24.2,18.4,30.45,WNW,301,2.0,4.0,78,0.00,,,0.00,LWC V2.00 B2112,2013-01-05 06:55:00,
2013-01-04 23:00:00,24.1,18.8,30.44,WNW,301,2.0,2.0,80,0.00,,,0.00,LWC V2.00 B2112,2013-01-05 07:00:00,
2013-01-04 23:05:00,24.1,19.1,30.44,NW,305,6.0,6.0,81,0.00,,,0.00,LWC V2.00 B2112,2013-01-05 07:05:00,
2013-01-04 23:10:00,24.1,18.5,30.44,NW,305,0.0,2.0,79,0.00,,,0.00,LWC V2.00 B2112,2013-01-05 07:10:00,
2013-01-04 23:15:00,24.1,18.5,30.44,NW,305,0.0,0.0,79,0.00,,,0.00,LWC V2.00 B2112,2013-01-05 07:15:00,
2013-01-04 23:20:00,24.1,18.5,30.44,NW,306,1.0,2.0,79,0.00,,,0.00,LWC V2.00 B2112,2013-01-05 07:20:00,
2013-01-04 23:25:00,24.4,18.5,30.44,North,10,0.0,2.0,78,0.00,,,0.00,LWC V2.00 B2112,2013-01-05 07:25:00,
2013-01-04 23:30:00,24.2,18.6,30.44,North,10,0.0,1.0,79,0.00,,,0.00,LWC V2.00 B2112,2013-01-05 07:30:00,
2013-01-04 23:35:00,24.4,18.8,30.44,North,10,0.0,0.0,79,0.00,,,0.00,LWC V2.00 B2112,2013-01-05 07:35:00,
2013-01-04 23:40:00,24.4,19.4,30.44,North,0,0.0,4.0,81,0.00,,,0.00,LWC V2.00 B2112,2013-01-05 07:40:00,
2013-01-04 23:45:00,24.4,18.8,30.44,North,0,0.0,0.0,79,0.00,,,0.00,LWC V2.00 B2112,2013-01-05 07:45:00,
2013-01-04 23:50:00,24.2,18.6,30.44,North,0,0.0,0.0,79,0.00,,,0.00,LWC V2.00 B2112,2013-01-05 07:50:00,
2013-01-04 23:55:00,24.4,18.8,30.44,NNE,20,0.0,1.0,79,0.00,,,0.00,LWC V2.00 B2112,2013-01-05 07:55:00,